createdAt,value
2023-05-06T00:00:38.540Z,938.29
2023-05-06T00:01:39.139Z,938.28
2023-05-06T00:02:39.888Z,938.29
2023-05-06T00:03:40.377Z,938.27
2023-05-06T00:04:40.976Z,938.27
2023-05-06T00:05:41.305Z,938.26
2023-05-06T00:06:41.403Z,938.23
2023-05-06T00:07:41.993Z,938.23
2023-05-06T00:08:43.028Z,938.22
2023-05-06T00:09:43.956Z,938.17
2023-05-06T00:10:45.140Z,938.17
2023-05-06T00:11:45.356Z,938.19
2023-05-06T00:12:45.685Z,938.21
2023-05-06T00:13:46.518Z,938.16
2023-05-06T00:14:47.226Z,938.17
2023-05-06T00:15:47.724Z,938.12
2023-05-06T00:16:48.645Z,938.12
2023-05-06T00:17:48.973Z,938.1
2023-05-06T00:18:49.525Z,938.13
2023-05-06T00:19:50.323Z,938.08
2023-05-06T00:20:51.043Z,938.08
2023-05-06T00:21:51.774Z,938.05
2023-05-06T00:22:52.314Z,938.06
2023-05-06T00:23:52.613Z,938.04
2023-05-06T00:24:53.129Z,938.07
2023-05-06T00:25:53.830Z,938.05
2023-05-06T00:26:54.351Z,938.05
2023-05-06T00:27:54.839Z,938.07
2023-05-06T00:28:55.400Z,938.07
2023-05-06T00:29:56.121Z,938.05
2023-05-06T00:30:56.871Z,938.05
2023-05-06T00:31:57.986Z,938.03
2023-05-06T00:32:58.784Z,938.01
2023-05-06T00:33:59.208Z,938.02
2023-05-06T00:35:00.254Z,938.01
2023-05-06T00:36:00.528Z,938.01
2023-05-06T00:37:01.436Z,938.01
2023-05-06T00:38:02.158Z,938.01
2023-05-06T00:39:02.801Z,938.02
2023-05-06T00:40:03.316Z,937.98
2023-05-06T00:41:04.143Z,937.97
2023-05-06T00:42:04.855Z,937.96
2023-05-06T00:43:05.386Z,937.95
2023-05-06T00:44:06.360Z,937.95
2023-05-06T00:45:06.734Z,937.93
2023-05-06T00:46:07.477Z,937.92
2023-05-06T00:47:08.382Z,937.89
2023-05-06T00:48:08.914Z,937.89
2023-05-06T00:49:09.604Z,937.88
2023-05-06T00:50:10.560Z,937.87
2023-05-06T00:51:11.407Z,937.91
2023-05-06T00:52:11.587Z,937.89
2023-05-06T00:53:11.890Z,937.86
2023-05-06T00:54:12.803Z,937.88
2023-05-06T00:55:13.511Z,937.86
2023-05-06T00:56:14.235Z,937.85
2023-05-06T00:57:14.858Z,937.85
2023-05-06T00:58:15.366Z,937.93
2023-05-06T00:59:15.795Z,937.91
2023-05-06T01:00:16.721Z,937.88
2023-05-06T01:01:17.253Z,937.89
2023-05-06T01:02:17.727Z,937.82
2023-05-06T01:03:17.868Z,937.83
2023-05-06T01:04:17.953Z,937.82
2023-05-06T01:05:19.008Z,937.85
2023-05-06T01:06:20.052Z,937.88
2023-05-06T01:07:20.569Z,937.87
2023-05-06T01:08:21.062Z,937.86
2023-05-06T01:09:21.867Z,937.91
2023-05-06T01:10:21.967Z,937.89
2023-05-06T01:11:22.631Z,937.91
2023-05-06T01:12:22.971Z,937.84
2023-05-06T01:13:23.679Z,937.86
2023-05-06T01:14:23.792Z,937.85
2023-05-06T01:15:24.074Z,937.89
2023-05-06T01:16:24.618Z,937.89
2023-05-06T01:17:25.458Z,937.91
2023-05-06T01:18:26.131Z,937.94
2023-05-06T01:19:26.625Z,937.95
2023-05-06T01:20:27.435Z,937.94
2023-05-06T01:21:27.968Z,937.97
2023-05-06T01:22:28.259Z,937.94
2023-05-06T01:23:28.796Z,937.99
2023-05-06T01:24:29.457Z,938.01
2023-05-06T01:25:30.194Z,937.98
2023-05-06T01:26:31.018Z,937.98
2023-05-06T01:27:32.000Z,938.01
2023-05-06T01:28:32.703Z,938.01
2023-05-06T01:29:33.485Z,938.01
2023-05-06T01:30:34.436Z,938.02
2023-05-06T01:32:35.871Z,938.04
2023-05-06T01:33:36.774Z,938.03
2023-05-06T01:34:37.038Z,938.02
2023-05-06T01:35:37.190Z,938.05
2023-05-06T01:36:37.706Z,938.03
2023-05-06T01:37:38.395Z,938
2023-05-06T01:38:39.294Z,938.02
2023-05-06T01:39:39.405Z,938.03
2023-05-06T01:40:40.032Z,938.06
2023-05-06T01:41:40.793Z,938.01
2023-05-06T01:42:41.334Z,937.99
2023-05-06T01:43:42.023Z,938.01
2023-05-06T01:44:42.984Z,938.03
2023-05-06T01:45:43.728Z,938.03
2023-05-06T01:46:44.093Z,938.03
2023-05-06T01:47:45.122Z,937.99
2023-05-06T01:48:45.288Z,938.01
2023-05-06T01:49:45.804Z,938.05
2023-05-06T01:50:46.886Z,938.02
2023-05-06T01:51:47.617Z,938.01
2023-05-06T01:52:48.392Z,937.99
2023-05-06T01:53:48.693Z,938.01
2023-05-06T01:54:49.216Z,937.98
2023-05-06T01:55:49.526Z,938
2023-05-06T01:56:50.414Z,938.02
2023-05-06T01:57:51.128Z,938.09
2023-05-06T01:58:51.452Z,938.06
2023-05-06T01:59:51.582Z,938.11
2023-05-06T02:00:51.859Z,938.07
2023-05-06T02:01:52.600Z,938.07
2023-05-06T02:02:53.263Z,938.06
2023-05-06T02:03:53.886Z,938.06
2023-05-06T02:04:53.985Z,938.06
2023-05-06T02:05:54.329Z,938.05
2023-05-06T02:06:54.826Z,938.03
2023-05-06T02:07:55.001Z,938.03
2023-05-06T02:08:55.976Z,938
2023-05-06T02:09:56.913Z,938.02
2023-05-06T02:10:57.428Z,938.05
2023-05-06T02:11:58.248Z,938.04
2023-05-06T02:12:59.017Z,938.05
2023-05-06T02:13:59.831Z,938.05
2023-05-06T02:15:00.686Z,938.05
2023-05-06T02:16:01.481Z,938.08
2023-05-06T02:17:02.232Z,938.11
2023-05-06T02:18:03.047Z,938.1
2023-05-06T02:19:03.538Z,938.13
2023-05-06T02:20:04.066Z,938.15
2023-05-06T02:21:04.424Z,938.18
2023-05-06T02:22:04.739Z,938.15
2023-05-06T02:23:05.639Z,938.13
2023-05-06T02:24:06.149Z,938.13
2023-05-06T02:25:06.835Z,938.09
2023-05-06T02:26:07.515Z,938.07
2023-05-06T02:27:07.833Z,938.02
2023-05-06T02:28:08.784Z,937.99
2023-05-06T02:29:08.883Z,937.96
2023-05-06T02:30:09.678Z,937.93
2023-05-06T02:31:09.858Z,937.91
2023-05-06T02:32:10.710Z,937.89
2023-05-06T02:33:11.465Z,937.87
2023-05-06T02:34:11.768Z,937.9
2023-05-06T02:35:12.474Z,937.92
2023-05-06T02:36:12.810Z,937.93
2023-05-06T02:37:13.519Z,937.96
2023-05-06T02:38:14.192Z,937.95
2023-05-06T02:39:15.130Z,937.95
2023-05-06T02:40:15.926Z,937.92
2023-05-06T02:41:16.230Z,937.93
2023-05-06T02:42:16.808Z,937.91
2023-05-06T02:43:17.376Z,937.86
2023-05-06T02:44:18.350Z,937.85
2023-05-06T02:45:19.066Z,937.84
2023-05-06T02:46:19.932Z,937.84
2023-05-06T02:47:20.652Z,937.87
2023-05-06T02:48:21.449Z,937.84
2023-05-06T02:49:21.953Z,937.83
2023-05-06T02:50:22.610Z,937.81
2023-05-06T02:51:23.267Z,937.84
2023-05-06T02:52:24.178Z,937.84
2023-05-06T02:53:24.916Z,937.83
2023-05-06T02:54:25.630Z,937.85
2023-05-06T02:55:26.009Z,937.85
2023-05-06T02:56:26.137Z,937.87
2023-05-06T02:57:26.753Z,937.89
2023-05-06T02:58:27.235Z,937.89
2023-05-06T02:59:27.965Z,937.9
2023-05-06T03:00:28.820Z,937.86
2023-05-06T03:01:28.995Z,937.92
2023-05-06T03:02:29.205Z,937.91
2023-05-06T03:03:30.273Z,937.95
2023-05-06T03:04:31.114Z,937.94
2023-05-06T03:05:31.999Z,937.98
2023-05-06T03:06:32.178Z,937.95
2023-05-06T03:07:32.878Z,937.93
2023-05-06T03:08:33.798Z,937.95
2023-05-06T03:09:34.301Z,937.91
2023-05-06T03:10:34.903Z,937.94
2023-05-06T03:11:35.378Z,937.93
2023-05-06T03:12:36.017Z,937.97
2023-05-06T03:13:36.687Z,937.94
2023-05-06T03:14:37.224Z,937.92
2023-05-06T03:15:37.805Z,937.93
2023-05-06T03:16:38.693Z,937.95
2023-05-06T03:17:39.533Z,937.94
2023-05-06T03:18:40.280Z,937.93
2023-05-06T03:19:40.993Z,937.9
2023-05-06T03:20:41.492Z,937.91
2023-05-06T03:21:42.577Z,937.89
2023-05-06T03:22:43.479Z,937.92
2023-05-06T03:23:44.285Z,937.9
2023-05-06T03:24:44.801Z,937.85
2023-05-06T03:25:45.705Z,937.87
2023-05-06T03:26:46.211Z,937.88
2023-05-06T03:27:47.025Z,937.84
2023-05-06T03:28:47.725Z,937.82
2023-05-06T03:29:48.426Z,937.78
2023-05-06T03:30:49.356Z,937.82
2023-05-06T03:31:50.121Z,937.82
2023-05-06T03:32:50.403Z,937.85
2023-05-06T03:33:51.403Z,937.87
2023-05-06T03:34:51.917Z,937.84
2023-05-06T03:35:52.799Z,937.86
2023-05-06T03:36:53.744Z,937.84
2023-05-06T03:37:54.318Z,937.84
2023-05-06T03:38:54.889Z,937.82
2023-05-06T03:39:55.586Z,937.82
2023-05-06T03:40:56.035Z,937.79
2023-05-06T03:41:57.118Z,937.82
2023-05-06T03:42:57.471Z,937.78
2023-05-06T03:43:57.972Z,937.75
2023-05-06T03:44:58.694Z,937.71
2023-05-06T03:45:59.287Z,937.75
2023-05-06T03:46:59.906Z,937.73
2023-05-06T03:48:00.842Z,937.76
2023-05-06T03:49:01.859Z,937.75
2023-05-06T03:50:02.012Z,937.72
2023-05-06T03:51:02.748Z,937.74
2023-05-06T03:52:02.858Z,937.8
2023-05-06T03:53:03.375Z,937.82
2023-05-06T03:54:03.875Z,937.81
2023-05-06T03:55:04.613Z,937.81
2023-05-06T03:56:04.931Z,937.8
2023-05-06T03:57:05.848Z,937.82
2023-05-06T03:58:06.530Z,937.83
2023-05-06T03:59:07.064Z,937.8
2023-05-06T04:00:07.606Z,937.76
2023-05-06T04:01:08.666Z,937.79
2023-05-06T04:02:09.690Z,937.79
2023-05-06T04:03:10.379Z,937.77
2023-05-06T04:04:11.190Z,937.76
2023-05-06T04:05:12.136Z,937.78
2023-05-06T04:06:12.073Z,937.77
2023-05-06T04:07:12.914Z,937.8
2023-05-06T04:08:13.820Z,937.79
2023-05-06T04:09:14.533Z,937.8
2023-05-06T04:10:15.216Z,937.78
2023-05-06T04:11:16.068Z,937.76
2023-05-06T04:12:16.275Z,937.77
2023-05-06T04:13:17.069Z,937.76
2023-05-06T04:14:18.067Z,937.75
2023-05-06T04:15:18.608Z,937.76
2023-05-06T04:16:19.608Z,937.81
2023-05-06T04:17:20.087Z,937.83
2023-05-06T04:18:20.811Z,937.87
2023-05-06T04:19:21.507Z,937.86
2023-05-06T04:20:21.831Z,937.86
2023-05-06T04:21:22.522Z,937.87
2023-05-06T04:22:23.213Z,937.87
2023-05-06T04:23:23.730Z,937.92
2023-05-06T04:24:23.829Z,937.91
2023-05-06T04:25:24.565Z,937.9
2023-05-06T04:26:25.003Z,937.88
2023-05-06T04:27:25.633Z,937.89
2023-05-06T04:28:26.335Z,937.88
2023-05-06T04:29:26.827Z,937.91
2023-05-06T04:30:27.319Z,937.95
2023-05-06T04:31:27.607Z,937.95
2023-05-06T04:32:28.666Z,937.97
2023-05-06T04:33:29.037Z,937.97
2023-05-06T04:34:29.568Z,938.01
2023-05-06T04:35:30.662Z,938.01
2023-05-06T04:36:31.767Z,937.99
2023-05-06T04:37:32.168Z,938.02
2023-05-06T04:38:33.239Z,938.05
2023-05-06T04:39:34.154Z,938.03
2023-05-06T04:40:34.540Z,938.06
2023-05-06T04:41:35.526Z,938.1
2023-05-06T04:42:36.009Z,938.1
2023-05-06T04:43:36.338Z,938.12
2023-05-06T04:44:36.643Z,938.15
2023-05-06T04:45:36.828Z,938.18
2023-05-06T04:46:37.072Z,938.17
2023-05-06T04:47:38.014Z,938.18
2023-05-06T04:48:38.566Z,938.19
2023-05-06T04:49:39.324Z,938.23
2023-05-06T04:50:40.052Z,938.2
2023-05-06T04:51:40.579Z,938.18
2023-05-06T04:52:40.706Z,938.18
2023-05-06T04:53:41.655Z,938.16
2023-05-06T04:54:43.545Z,938.18
2023-05-06T04:55:42.579Z,938.19
2023-05-06T04:56:43.662Z,938.23
2023-05-06T04:57:44.134Z,938.21
2023-05-06T04:58:44.861Z,938.26
2023-05-06T04:59:45.561Z,938.23
2023-05-06T05:00:46.064Z,938.25
2023-05-06T05:01:47.196Z,938.22
2023-05-06T05:02:47.937Z,938.19
2023-05-06T05:03:48.119Z,938.2
2023-05-06T05:04:49.049Z,938.2
2023-05-06T05:05:49.547Z,938.16
2023-05-06T05:06:49.874Z,938.15
2023-05-06T05:07:50.163Z,938.18
2023-05-06T05:08:51.258Z,938.14
2023-05-06T05:09:52.062Z,938.15
2023-05-06T05:10:52.800Z,938.19
2023-05-06T05:11:53.824Z,938.18
2023-05-06T05:12:54.353Z,938.18
2023-05-06T05:13:56.878Z,938.15
2023-05-06T05:14:55.689Z,938.19
2023-05-06T05:15:56.721Z,938.18
2023-05-06T05:16:57.214Z,938.15
2023-05-06T05:17:57.997Z,938.17
2023-05-06T05:19:00.331Z,938.2
2023-05-06T05:19:59.849Z,938.21
2023-05-06T05:21:00.310Z,938.24
2023-05-06T05:22:00.600Z,938.23
2023-05-06T05:23:01.608Z,938.22
2023-05-06T05:24:02.304Z,938.24
2023-05-06T05:25:02.673Z,938.27
2023-05-06T05:26:03.620Z,938.29
2023-05-06T05:27:04.493Z,938.29
2023-05-06T05:28:05.238Z,938.34
2023-05-06T05:29:05.744Z,938.33
2023-05-06T05:30:06.490Z,938.35
2023-05-06T05:31:08.378Z,938.41
2023-05-06T05:32:07.838Z,938.38
2023-05-06T05:33:08.673Z,938.37
2023-05-06T05:34:08.993Z,938.43
2023-05-06T05:35:09.969Z,938.41
2023-05-06T05:36:09.874Z,938.41
2023-05-06T05:37:10.688Z,938.42
2023-05-06T05:38:11.597Z,938.42
2023-05-06T05:39:12.513Z,938.44
2023-05-06T05:40:12.700Z,938.41
2023-05-06T05:41:13.679Z,938.43
2023-05-06T05:42:13.736Z,938.38
2023-05-06T05:43:14.826Z,938.33
2023-05-06T05:44:15.408Z,938.29
2023-05-06T05:45:16.120Z,938.22
2023-05-06T05:46:16.688Z,938.15
2023-05-06T05:47:16.768Z,938.14
2023-05-06T05:48:17.385Z,938.11
2023-05-06T05:49:17.886Z,938.09
2023-05-06T05:50:18.389Z,938.14
2023-05-06T05:51:19.091Z,938.12
2023-05-06T05:52:19.389Z,938.14
2023-05-06T05:53:20.464Z,938.19
2023-05-06T05:54:20.778Z,938.21
2023-05-06T05:55:21.269Z,938.22
2023-05-06T05:56:21.567Z,938.23
2023-05-06T05:57:22.016Z,938.24
2023-05-06T05:58:22.721Z,938.27
2023-05-06T05:59:23.578Z,938.25
2023-05-06T06:00:24.295Z,938.26
2023-05-06T06:01:25.055Z,938.23
2023-05-06T06:02:25.520Z,938.21
2023-05-06T06:03:26.456Z,938.22
2023-05-06T06:04:27.504Z,938.23
2023-05-06T06:05:27.761Z,938.21
2023-05-06T06:06:28.480Z,938.24
2023-05-06T06:07:28.977Z,938.23
2023-05-06T06:08:30.002Z,938.23
2023-05-06T06:09:30.883Z,938.26
2023-05-06T06:10:31.395Z,938.3
2023-05-06T06:11:32.306Z,938.29
2023-05-06T06:12:33.233Z,938.32
2023-05-06T06:13:34.013Z,938.29
2023-05-06T06:14:34.343Z,938.31
2023-05-06T06:15:35.028Z,938.3
2023-05-06T06:16:35.544Z,938.35
2023-05-06T06:17:35.951Z,938.35
2023-05-06T06:18:36.862Z,938.36
2023-05-06T06:19:37.362Z,938.41
2023-05-06T06:20:37.869Z,938.4
2023-05-06T06:21:38.746Z,938.4
2023-05-06T06:22:39.465Z,938.43
2023-05-06T06:23:40.349Z,938.45
2023-05-06T06:24:41.066Z,938.45
2023-05-06T06:25:41.991Z,938.49
2023-05-06T06:26:42.540Z,938.5
2023-05-06T06:27:43.304Z,938.5
2023-05-06T06:28:44.303Z,938.5
2023-05-06T06:29:44.658Z,938.53
2023-05-06T06:30:45.206Z,938.53
2023-05-06T06:31:45.951Z,938.49
2023-05-06T06:32:47.008Z,938.52
2023-05-06T06:33:47.747Z,938.49
2023-05-06T06:34:47.982Z,938.49
2023-05-06T06:35:48.720Z,938.54
2023-05-06T06:36:49.448Z,938.52
2023-05-06T06:37:50.081Z,938.5
2023-05-06T06:38:50.540Z,938.5
2023-05-06T06:39:51.253Z,938.43
2023-05-06T06:40:52.211Z,938.43
2023-05-06T06:41:52.514Z,938.38
2023-05-06T06:42:53.397Z,938.39
2023-05-06T06:43:54.118Z,938.4
2023-05-06T06:44:54.915Z,938.45
2023-05-06T06:45:55.893Z,938.5
2023-05-06T06:46:56.965Z,938.55
2023-05-06T06:47:57.787Z,938.57
2023-05-06T06:48:58.490Z,938.58
2023-05-06T06:49:59.270Z,938.6
2023-05-06T06:51:00.010Z,938.63
2023-05-06T06:52:00.502Z,938.59
2023-05-06T06:53:00.811Z,938.61
2023-05-06T06:54:01.535Z,938.61
2023-05-06T06:55:02.013Z,938.66
2023-05-06T06:56:02.558Z,938.65
2023-05-06T06:57:03.065Z,938.6
2023-05-06T06:58:03.555Z,938.62
2023-05-06T06:59:04.266Z,938.62
2023-05-06T07:00:05.424Z,938.62
2023-05-06T07:01:05.001Z,938.68
2023-05-06T07:02:05.553Z,938.68
2023-05-06T07:03:06.848Z,938.75
2023-05-06T07:04:07.411Z,938.72
2023-05-06T07:05:07.923Z,938.68
2023-05-06T07:06:07.975Z,938.81
2023-05-06T07:07:08.495Z,938.76
2023-05-06T07:08:09.535Z,938.8
2023-05-06T07:09:10.551Z,938.79
2023-05-06T07:10:10.851Z,938.79
2023-05-06T07:11:11.548Z,938.78
2023-05-06T07:12:11.677Z,938.76
2023-05-06T07:13:12.231Z,938.75
2023-05-06T07:14:12.332Z,938.74
2023-05-06T07:15:13.321Z,938.77
2023-05-06T07:16:13.482Z,938.75
2023-05-06T07:17:14.487Z,938.75
2023-05-06T07:18:15.410Z,938.75
2023-05-06T07:19:16.189Z,938.74
2023-05-06T07:20:16.722Z,938.76
2023-05-06T07:21:17.052Z,938.76
2023-05-06T07:22:18.011Z,938.73
2023-05-06T07:23:18.558Z,938.73
2023-05-06T07:24:19.053Z,938.75
2023-05-06T07:25:20.001Z,938.75
2023-05-06T07:26:20.365Z,938.75
2023-05-06T07:27:21.124Z,938.8
2023-05-06T07:28:21.704Z,938.82
2023-05-06T07:29:22.484Z,938.85
2023-05-06T07:30:23.592Z,938.86
2023-05-06T07:31:23.606Z,938.85
2023-05-06T07:32:24.494Z,938.85
2023-05-06T07:33:24.702Z,938.87
2023-05-06T07:34:25.210Z,938.89
2023-05-06T07:35:25.924Z,938.86
2023-05-06T07:36:26.652Z,938.87
2023-05-06T07:37:27.048Z,938.89
2023-05-06T07:38:27.296Z,938.92
2023-05-06T07:39:28.206Z,938.92
2023-05-06T07:40:28.703Z,938.96
2023-05-06T07:41:29.106Z,938.95
2023-05-06T07:42:30.029Z,938.97
2023-05-06T07:43:30.724Z,938.95
2023-05-06T07:44:31.035Z,938.95
2023-05-06T07:45:32.064Z,938.91
2023-05-06T07:46:33.074Z,938.94
2023-05-06T07:47:33.826Z,938.93
2023-05-06T07:48:33.929Z,938.95
2023-05-06T07:49:34.481Z,938.97
2023-05-06T07:50:34.951Z,939.01
2023-05-06T07:51:35.088Z,939.05
2023-05-06T07:52:35.596Z,938.97
2023-05-06T07:53:35.707Z,939.02
2023-05-06T07:54:35.846Z,939
2023-05-06T07:55:36.356Z,939.02
2023-05-06T07:56:37.038Z,938.97
2023-05-06T07:57:38.010Z,938.97
2023-05-06T07:58:38.234Z,938.97
2023-05-06T07:59:38.758Z,938.99
2023-05-06T08:00:39.609Z,939
2023-05-06T08:01:40.186Z,939.01
2023-05-06T08:02:40.816Z,939.01
2023-05-06T08:03:41.854Z,939.03
2023-05-06T08:04:42.381Z,939.02
2023-05-06T08:05:43.135Z,939.04
2023-05-06T08:06:43.852Z,939.01
2023-05-06T08:07:43.967Z,939.04
2023-05-06T08:08:44.291Z,939.01
2023-05-06T08:09:45.297Z,939.06
2023-05-06T08:10:46.332Z,939.02
2023-05-06T08:11:46.845Z,939.06
2023-05-06T08:12:47.724Z,939.03
2023-05-06T08:13:48.760Z,939.05
2023-05-06T08:14:49.261Z,939.05
2023-05-06T08:15:49.820Z,939.08
2023-05-06T08:16:50.746Z,939.07
2023-05-06T08:17:51.708Z,939.05
2023-05-06T08:19:00.209Z,939.09
2023-05-06T08:20:01.074Z,939.09
2023-05-06T08:21:01.821Z,939.09
2023-05-06T08:22:02.753Z,939.1
2023-05-06T08:23:03.281Z,939.1
2023-05-06T08:24:04.204Z,939.13
2023-05-06T08:25:05.140Z,939.18
2023-05-06T08:26:05.332Z,939.15
2023-05-06T08:27:06.074Z,939.14
2023-05-06T08:28:07.018Z,939.14
2023-05-06T08:29:07.864Z,939.17
2023-05-06T08:30:07.976Z,939.15
2023-05-06T08:31:08.351Z,939.16
2023-05-06T08:32:08.442Z,939.19
2023-05-06T08:33:08.828Z,939.21
2023-05-06T08:34:09.211Z,939.24
2023-05-06T08:35:10.314Z,939.24
2023-05-06T08:36:10.779Z,939.21
2023-05-06T08:37:11.511Z,939.23
2023-05-06T08:38:12.214Z,939.22
2023-05-06T08:39:12.705Z,939.23
2023-05-06T08:40:13.566Z,939.24
2023-05-06T08:41:13.903Z,939.21
2023-05-06T08:42:14.456Z,939.24
2023-05-06T08:43:15.197Z,939.25
2023-05-06T08:44:15.939Z,939.23
2023-05-06T08:45:16.851Z,939.24
2023-05-06T08:46:17.750Z,939.26
2023-05-06T08:47:17.742Z,939.26
2023-05-06T08:48:18.269Z,939.23
2023-05-06T08:49:19.072Z,939.27
2023-05-06T08:50:19.782Z,939.28
2023-05-06T08:51:20.876Z,939.23
2023-05-06T08:52:21.540Z,939.21
2023-05-06T08:53:21.719Z,939.27
2023-05-06T08:54:22.533Z,939.27
2023-05-06T08:55:23.499Z,939.22
2023-05-06T08:56:24.206Z,939.19
2023-05-06T08:57:24.730Z,939.2
2023-05-06T08:58:25.653Z,939.17
2023-05-06T08:59:26.321Z,939.21
2023-05-06T09:00:26.620Z,939.21
2023-05-06T09:01:26.979Z,939.2
2023-05-06T09:02:27.110Z,939.22
2023-05-06T09:03:27.655Z,939.21
2023-05-06T09:04:28.149Z,939.2
2023-05-06T09:05:28.669Z,939.2
2023-05-06T09:06:28.789Z,939.21
2023-05-06T09:07:29.290Z,939.22
2023-05-06T09:08:29.852Z,939.24
2023-05-06T09:09:30.186Z,939.23
2023-05-06T09:10:31.220Z,939.27
2023-05-06T09:11:31.822Z,939.31
2023-05-06T09:12:32.576Z,939.28
2023-05-06T09:13:33.290Z,939.24
2023-05-06T09:14:33.976Z,939.28
2023-05-06T09:15:34.677Z,939.23
2023-05-06T09:16:35.651Z,939.24
2023-05-06T09:17:35.799Z,939.22
2023-05-06T09:18:36.770Z,939.21
2023-05-06T09:19:37.734Z,939.2
2023-05-06T09:20:37.845Z,939.14
2023-05-06T09:21:38.586Z,939.16
2023-05-06T09:22:39.336Z,939.18
2023-05-06T09:23:40.242Z,939.16
2023-05-06T09:24:41.113Z,939.16
2023-05-06T09:25:41.903Z,939.14
2023-05-06T09:26:42.874Z,939.15
2023-05-06T09:27:43.402Z,939.15
2023-05-06T09:28:43.709Z,939.18
2023-05-06T09:29:44.164Z,939.17
2023-05-06T09:30:44.814Z,939.21
2023-05-06T09:31:45.797Z,939.16
2023-05-06T09:32:46.320Z,939.23
2023-05-06T09:33:47.023Z,939.14
2023-05-06T09:34:47.656Z,939.16
2023-05-06T09:35:48.164Z,939.12
2023-05-06T09:36:48.465Z,939.17
2023-05-06T09:37:49.188Z,939.11
2023-05-06T09:38:49.827Z,939.05
2023-05-06T09:39:49.954Z,939.1
2023-05-06T09:40:50.940Z,939.08
2023-05-06T09:41:51.665Z,939.04
2023-05-06T09:42:52.418Z,939.05
2023-05-06T09:43:53.165Z,939.03
2023-05-06T09:44:54.210Z,939.07
2023-05-06T09:45:55.194Z,939.06
2023-05-06T09:46:55.820Z,939.14
2023-05-06T09:47:56.558Z,939.1
2023-05-06T09:48:57.420Z,939.1
2023-05-06T09:49:58.108Z,939.09
2023-05-06T09:51:00.019Z,939.09
2023-05-06T09:51:59.062Z,939.12
2023-05-06T09:52:59.531Z,939.1
2023-05-06T09:54:00.262Z,939.08
2023-05-06T09:55:00.374Z,939.14
2023-05-06T09:56:00.786Z,939.07
2023-05-06T09:57:01.173Z,939.09
2023-05-06T09:58:01.062Z,939.08
2023-05-06T09:59:01.634Z,939.07
2023-05-06T10:00:02.205Z,939.08
2023-05-06T10:01:03.037Z,939.06
2023-05-06T10:02:03.309Z,939.05
2023-05-06T10:03:03.815Z,939.07
2023-05-06T10:04:04.499Z,939.04
2023-05-06T10:05:04.964Z,939.02
2023-05-06T10:06:05.145Z,939.04
2023-05-06T10:07:06.069Z,939.05
2023-05-06T10:08:07.016Z,939.04
2023-05-06T10:09:07.735Z,939.09
2023-05-06T10:10:08.565Z,939.07
2023-05-06T10:11:09.155Z,939.09
2023-05-06T10:12:09.879Z,939.07
2023-05-06T10:13:10.637Z,939.03
2023-05-06T10:14:11.495Z,939.07
2023-05-06T10:15:12.470Z,939.01
2023-05-06T10:16:15.271Z,939.08
2023-05-06T10:17:13.901Z,939
2023-05-06T10:18:14.253Z,939.03
2023-05-06T10:19:14.972Z,939.03
2023-05-06T10:20:15.361Z,939.01
2023-05-06T10:21:16.026Z,939.02
2023-05-06T10:22:16.527Z,939
2023-05-06T10:23:17.452Z,938.94
2023-05-06T10:24:18.356Z,938.96
2023-05-06T10:25:18.899Z,938.96
2023-05-06T10:26:19.837Z,938.97
2023-05-06T10:27:20.596Z,938.9
2023-05-06T10:28:21.813Z,938.91
2023-05-06T10:29:21.656Z,938.96
2023-05-06T10:30:21.854Z,938.9
2023-05-06T10:31:22.427Z,938.9
2023-05-06T10:32:23.512Z,938.86
2023-05-06T10:33:24.204Z,938.81
2023-05-06T10:34:25.008Z,938.82
2023-05-06T10:35:25.335Z,938.82
2023-05-06T10:36:25.919Z,938.85
2023-05-06T10:37:26.101Z,938.81
2023-05-06T10:38:26.841Z,938.75
2023-05-06T10:39:27.175Z,938.77
2023-05-06T10:40:27.852Z,938.78
2023-05-06T10:41:28.845Z,938.82
2023-05-06T10:42:29.834Z,938.75
2023-05-06T10:43:30.176Z,938.76
2023-05-06T10:44:30.950Z,938.77
2023-05-06T10:45:31.984Z,938.77
2023-05-06T10:46:32.910Z,938.8
2023-05-06T10:47:33.666Z,938.69
2023-05-06T10:48:34.722Z,938.71
2023-05-06T10:49:35.456Z,938.71
2023-05-06T10:50:36.401Z,938.73
2023-05-06T10:51:37.368Z,938.68
2023-05-06T10:52:37.920Z,938.7
2023-05-06T10:53:38.064Z,938.68
2023-05-06T10:54:38.395Z,938.68
2023-05-06T10:55:39.135Z,938.69
2023-05-06T10:56:39.980Z,938.74
2023-05-06T10:57:40.633Z,938.64
2023-05-06T10:58:41.344Z,938.6
2023-05-06T10:59:41.460Z,938.61
2023-05-06T11:00:42.501Z,938.53
2023-05-06T11:01:42.654Z,938.52
2023-05-06T11:02:44.415Z,938.51
2023-05-06T11:03:44.025Z,938.54
2023-05-06T11:04:44.386Z,938.51
2023-05-06T11:05:44.728Z,938.56
2023-05-06T11:06:45.131Z,938.55
2023-05-06T11:07:45.469Z,938.56
2023-05-06T11:08:46.667Z,938.56
2023-05-06T11:09:46.437Z,938.61
2023-05-06T11:10:46.916Z,938.58
2023-05-06T11:11:47.711Z,938.56
2023-05-06T11:12:48.271Z,938.56
2023-05-06T11:13:50.552Z,938.59
2023-05-06T11:14:49.155Z,938.6
2023-05-06T11:15:49.727Z,938.56
2023-05-06T11:16:50.065Z,938.58
2023-05-06T11:17:50.612Z,938.52
2023-05-06T11:18:50.623Z,938.53
2023-05-06T11:19:51.362Z,938.52
2023-05-06T11:20:51.917Z,938.48
2023-05-06T11:21:52.099Z,938.49
2023-05-06T11:22:52.518Z,938.46
2023-05-06T11:23:53.022Z,938.49
2023-05-06T11:24:53.359Z,938.52
2023-05-06T11:25:53.682Z,938.45
2023-05-06T11:26:53.900Z,938.46
2023-05-06T11:27:54.225Z,938.43
2023-05-06T11:28:54.530Z,938.45
2023-05-06T11:29:55.267Z,938.45
2023-05-06T11:30:56.023Z,938.41
2023-05-06T11:31:56.119Z,938.46
2023-05-06T11:32:57.227Z,938.41
2023-05-06T11:33:57.976Z,938.41
2023-05-06T11:34:58.898Z,938.38
2023-05-06T11:35:59.832Z,938.36
2023-05-06T11:37:00.582Z,938.34
2023-05-06T11:38:01.616Z,938.34
2023-05-06T11:39:04.724Z,938.36
2023-05-06T11:40:03.091Z,938.36
2023-05-06T11:41:03.524Z,938.38
2023-05-06T11:42:04.564Z,938.36
2023-05-06T11:43:05.299Z,938.34
2023-05-06T11:44:06.104Z,938.32
2023-05-06T11:45:06.579Z,938.4
2023-05-06T11:46:07.401Z,938.42
2023-05-06T11:47:08.399Z,938.45
2023-05-06T11:48:09.483Z,938.49
2023-05-06T11:49:10.041Z,938.45
2023-05-06T11:50:10.886Z,938.45
2023-05-06T11:51:11.218Z,938.46
2023-05-06T11:52:11.572Z,938.43
2023-05-06T11:53:12.256Z,938.42
2023-05-06T11:54:12.979Z,938.45
2023-05-06T11:55:13.088Z,938.43
2023-05-06T11:56:13.590Z,938.47
2023-05-06T11:57:14.685Z,938.49
2023-05-06T11:58:15.796Z,938.47
2023-05-06T11:59:16.328Z,938.44
2023-05-06T12:00:17.087Z,938.43
2023-05-06T12:01:17.371Z,938.46
2023-05-06T12:02:18.347Z,938.48
2023-05-06T12:03:18.522Z,938.44
2023-05-06T12:04:19.127Z,938.45
2023-05-06T12:05:19.230Z,938.42
2023-05-06T12:06:19.527Z,938.46
2023-05-06T12:07:20.457Z,938.5
2023-05-06T12:08:27.207Z,938.48
2023-05-06T12:09:21.689Z,938.5
2023-05-06T12:10:22.217Z,938.37
2023-05-06T12:11:23.269Z,938.35
2023-05-06T12:12:24.166Z,938.28
2023-05-06T12:13:25.019Z,938.33
2023-05-06T12:14:25.579Z,938.27
2023-05-06T12:15:26.194Z,938.33
2023-05-06T12:16:27.124Z,938.3
2023-05-06T12:17:27.233Z,938.37
2023-05-06T12:18:27.444Z,938.38
2023-05-06T12:19:28.166Z,938.36
2023-05-06T12:20:29.144Z,938.41
2023-05-06T12:21:29.911Z,938.43
2023-05-06T12:22:30.421Z,938.42
2023-05-06T12:23:30.920Z,938.42
2023-05-06T12:24:31.918Z,938.46
2023-05-06T12:25:32.871Z,938.43
2023-05-06T12:26:33.773Z,938.48
2023-05-06T12:27:34.707Z,938.43
2023-05-06T12:28:35.452Z,938.44
2023-05-06T12:29:36.153Z,938.45
2023-05-06T12:30:36.875Z,938.47
2023-05-06T12:31:37.894Z,938.46
2023-05-06T12:32:38.191Z,938.47
2023-05-06T12:33:38.624Z,938.45
2023-05-06T12:34:38.877Z,938.37
2023-05-06T12:35:39.435Z,938.32
2023-05-06T12:36:40.249Z,938.31
2023-05-06T12:37:40.818Z,938.31
2023-05-06T12:38:41.006Z,938.33
2023-05-06T12:39:41.962Z,938.36